Airfield :
LOGIN :

Register | Disclaimer

   EN    FR    IT 

 










Legend :    VFR   Marginal VFR   IFR   Intensive IFR   Very Intensive IFR
Visi :
Ceiling :
>= 8 km
>= 3000ft
5 to 8 km
1000 to 3000 ft
1500m to 5 km
500 to 1000 ft
800 to 1500m
200 to 500 ft
< 800m
< 200 ft
Symbols :   Thunderstorms  Fog  Heavy snow  Heavy precipitations  Wind > 20 kt
SIGMETs :     Misc.  Thunderstorms  Icing  Turbulence  Mountain Waves  Volcanic Ashes






- Airport Elevation : 325 ft
- IATA code : BES


LFRB - Brest

CURRENT METAR :
  • 240430Z AUTO 03010KT 4300 BR FEW006 OVC210 02/01 Q1021 TEMPO BKN006

EXPIRED METARs :
  • 240400Z AUTO 04007KT 4200 BR BKN006 BKN200 02/01 Q1021 NOSIG
  • 240330Z AUTO 07009KT 4100 BR BKN006 BKN200 02/02 Q1021 NOSIG
  • 240300Z AUTO 06008KT 4100 BR OVC007 03/02 Q1021 NOSIG
  • 240230Z AUTO 06009KT 4200 BR OVC007 03/02 Q1022 NOSIG
  • 240200Z AUTO 06010KT 4900 BR BKN007 03/02 Q1022 NOSIG

TAF AMD TAF LFRB
Valid from the 24 at 01:00 until the 25 at 06:00 UTC


240136Z 2401/2506 05010KT CAVOK
TEMPO 2401/2409 3000 BR BKN006
BECMG 2412/2415 BKN013
BECMG 2417/2420 OVC005
PROB30
TEMPO 2503/2506 3000 -RA OVC003
ATIS : +33 2 98 32 02 71



MET'MAP, your aeronautical weather chart ! - Copyright ORBIFLY December 2007 - Disclaimer

ORBIFLY MET'MAP TEAM :

Programming & Development : Alexandra Zaïnal
Concept & original design : Baudouin d'Aumeries
Assistance for programming : Marc-Olivier Méhu
Technical & hardware support : Manuel Goepfert

Contact : metmap@orbifly.com




SOURCES & CREDITS :

   NOAA